Time;durP1;ratioP1;P1;durP2;ratioP2;P2;SDS_P1;SDS_P2;PMS_P1;PMS_P2;Temp;Humidity;BMP_temperature;BMP_pressure;BME280_temperature;BME280_humidity;BME280_pressure;Samples;Min_cycle;Max_cycle;Signal;HPM_P1;HPM_P2
2021/09/03 00:00:35;;;;;;;18.45;14.63;;;13.80;99.90;;;;;;5122417;28;20202;-84
2021/09/03 00:03:02;;;;;;;20.58;16.17;;;13.80;99.90;;;;;;5102326;28;20294;-84
2021/09/03 00:05:30;;;;;;;18.55;15.20;;;13.80;99.90;;;;;;5117396;28;20217;-84
2021/09/03 00:07:57;;;;;;;19.88;15.50;;;13.80;99.90;;;;;;5115849;28;20514;-84
2021/09/03 00:10:24;;;;;;;18.73;14.68;;;13.80;99.90;;;;;;5104085;28;20242;-83
2021/09/03 00:12:51;;;;;;;20.60;15.02;;;13.80;99.90;;;;;;5115687;28;20197;-83
2021/09/03 00:15:19;;;;;;;16.13;14.18;;;13.70;99.90;;;;;;5120294;28;20251;-83
2021/09/03 00:17:46;;;;;;;19.45;15.98;;;13.80;99.90;;;;;;5118406;28;20418;-84
2021/09/03 00:20:14;;;;;;;17.55;14.52;;;13.80;99.90;;;;;;5098238;28;20218;-84
2021/09/03 00:22:42;;;;;;;23.65;14.68;;;13.80;99.90;;;;;;5108578;28;20263;-82
2021/09/03 00:25:10;;;;;;;17.48;15.40;;;13.80;99.90;;;;;;5117954;28;20225;-84
2021/09/03 00:27:38;;;;;;;19.25;15.30;;;13.70;99.90;;;;;;5110369;28;20197;-83
2021/09/03 00:30:06;;;;;;;16.85;15.07;;;13.70;99.90;;;;;;5118825;28;20240;-83
2021/09/03 00:32:33;;;;;;;18.25;16.35;;;13.70;99.90;;;;;;5121477;28;20441;-84
2021/09/03 00:35:01;;;;;;;20.60;15.32;;;13.70;99.90;;;;;;5094689;28;20297;-86
2021/09/03 00:37:28;;;;;;;20.20;16.70;;;13.70;99.90;;;;;;5103845;28;20491;-85
2021/09/03 00:39:57;;;;;;;17.58;15.65;;;13.80;99.90;;;;;;5103542;28;20427;-84
2021/09/03 00:42:24;;;;;;;23.63;17.15;;;13.80;99.90;;;;;;5120312;28;20247;-85
2021/09/03 00:44:52;;;;;;;21.73;17.75;;;13.70;99.90;;;;;;5100458;28;20197;-86
2021/09/03 00:47:19;;;;;;;20.23;16.90;;;13.70;99.90;;;;;;5120346;28;20215;-86
2021/09/03 00:49:46;;;;;;;18.75;16.23;;;13.70;99.90;;;;;;5122633;28;20204;-86
2021/09/03 00:52:14;;;;;;;24.13;18.05;;;13.60;99.90;;;;;;5098026;28;20216;-85
2021/09/03 00:54:41;;;;;;;22.52;16.73;;;13.60;99.90;;;;;;5121894;28;20198;-85
2021/09/03 00:57:08;;;;;;;20.45;15.95;;;13.60;99.90;;;;;;5098897;28;20212;-85
2021/09/03 00:59:36;;;;;;;20.15;16.58;;;13.60;99.90;;;;;;5115409;28;20198;-85
2021/09/03 01:02:03;;;;;;;21.67;16.90;;;13.60;99.90;;;;;;5104695;28;20211;-86
2021/09/03 01:04:31;;;;;;;20.83;15.50;;;13.60;99.90;;;;;;5115710;28;20239;-86
2021/09/03 01:06:58;;;;;;;18.75;16.73;;;13.60;99.90;;;;;;5119970;28;20266;-85
2021/09/03 01:09:26;;;;;;;22.73;15.65;;;13.60;99.90;;;;;;5117442;28;20198;-86
2021/09/03 01:11:53;;;;;;;19.83;16.10;;;13.60;99.90;;;;;;5098392;28;20192;-84
2021/09/03 01:14:23;;;;;;;21.85;15.40;;;13.60;99.90;;;;;;5100817;28;20213;-86
2021/09/03 01:16:50;;;;;;;18.00;15.75;;;13.60;99.90;;;;;;5116788;28;20429;-85
2021/09/03 01:19:17;;;;;;;22.58;17.77;;;13.50;99.90;;;;;;5117057;28;20197;-85
2021/09/03 01:21:52;;;;;;;18.83;15.25;;;13.50;99.90;;;;;;5116412;28;20247;-86
2021/09/03 01:24:20;;;;;;;24.63;16.90;;;13.40;99.90;;;;;;5094821;28;20571;-86
2021/09/03 01:26:48;;;;;;;22.25;17.80;;;13.50;99.90;;;;;;5092531;28;20250;-88
2021/09/03 01:29:15;;;;;;;25.13;17.27;;;13.50;99.90;;;;;;5121335;28;20259;-87
2021/09/03 01:31:42;;;;;;;22.35;17.50;;;13.50;99.90;;;;;;5107489;28;20232;-86
2021/09/03 01:34:11;;;;;;;22.85;16.70;;;13.50;99.90;;;;;;5120395;28;20239;-86
2021/09/03 01:36:38;;;;;;;26.10;17.88;;;13.50;99.90;;;;;;5098963;28;20258;-86
2021/09/03 01:39:05;;;;;;;22.08;19.58;;;13.60;99.90;;;;;;5094450;28;20206;-85
2021/09/03 01:41:32;;;;;;;21.63;18.60;;;13.60;99.90;;;;;;5121475;28;20326;-85
2021/09/03 01:43:59;;;;;;;22.25;17.92;;;13.60;99.90;;;;;;5103443;28;20205;-85
2021/09/03 01:46:27;;;;;;;21.30;18.35;;;13.70;99.90;;;;;;5094280;28;20229;-85
2021/09/03 01:48:54;;;;;;;24.13;18.85;;;13.70;99.90;;;;;;5110293;28;20214;-84
2021/09/03 01:51:21;;;;;;;22.98;18.42;;;13.80;99.90;;;;;;5119303;28;20206;-84
2021/09/03 01:53:48;;;;;;;24.30;19.20;;;13.80;99.90;;;;;;5096788;28;20237;-87
2021/09/03 01:56:15;;;;;;;27.95;19.75;;;13.80;99.90;;;;;;5111508;28;20526;-87
2021/09/03 01:58:42;;;;;;;25.92;19.48;;;13.80;99.90;;;;;;5098402;28;20197;-84
2021/09/03 02:01:09;;;;;;;23.98;18.02;;;13.80;99.90;;;;;;5114141;28;20198;-85
2021/09/03 02:03:37;;;;;;;25.98;18.92;;;13.80;99.90;;;;;;5099503;28;20205;-85
2021/09/03 02:06:04;;;;;;;22.33;17.65;;;13.80;99.90;;;;;;5113530;28;20241;-83
2021/09/03 02:08:31;;;;;;;20.17;17.63;;;13.80;99.90;;;;;;5114938;28;20201;-83
2021/09/03 02:10:58;;;;;;;20.10;16.00;;;13.70;99.90;;;;;;5116238;28;20499;-83
2021/09/03 02:13:25;;;;;;;19.10;16.55;;;13.70;99.90;;;;;;5113758;28;20445;-84
2021/09/03 02:15:53;;;;;;;28.35;17.40;;;13.60;99.90;;;;;;5117711;28;20514;-83
2021/09/03 02:18:20;;;;;;;17.42;15.32;;;13.50;99.90;;;;;;5098726;28;20209;-84
2021/09/03 02:20:47;;;;;;;20.40;16.48;;;13.50;99.90;;;;;;5120603;28;20205;-83
2021/09/03 02:23:14;;;;;;;25.48;16.55;;;13.50;99.90;;;;;;5117556;28;20205;-83
2021/09/03 02:25:41;;;;;;;19.95;16.42;;;13.40;99.90;;;;;;5121820;28;20220;-83
2021/09/03 02:28:09;;;;;;;16.00;13.82;;;13.50;99.90;;;;;;5121092;28;20190;-83
2021/09/03 02:30:37;;;;;;;19.00;15.05;;;13.40;99.90;;;;;;5107054;28;20239;-82
2021/09/03 02:33:04;;;;;;;16.95;15.25;;;13.40;99.90;;;;;;5120408;28;20197;-83
2021/09/03 02:35:31;;;;;;;18.42;15.70;;;13.30;99.90;;;;;;5100605;28;20197;-82
2021/09/03 02:37:58;;;;;;;23.75;17.70;;;13.20;99.90;;;;;;5124758;28;20649;-83
2021/09/03 02:40:27;;;;;;;23.80;17.08;;;13.20;99.90;;;;;;5119675;28;20198;-84
2021/09/03 02:42:54;;;;;;;21.95;17.27;;;13.20;99.90;;;;;;5098228;28;20197;-83
2021/09/03 02:45:22;;;;;;;23.25;16.73;;;13.20;99.90;;;;;;5117910;28;20200;-81
2021/09/03 02:47:49;;;;;;;22.77;17.80;;;13.10;99.90;;;;;;5104389;28;20198;-83
2021/09/03 02:50:16;;;;;;;20.50;16.60;;;13.20;99.90;;;;;;5117321;28;20360;-82
2021/09/03 02:52:43;;;;;;;23.63;18.10;;;13.10;99.90;;;;;;5106095;28;20250;-83
2021/09/03 02:55:10;;;;;;;24.75;17.08;;;13.10;99.90;;;;;;5118995;28;20268;-83
2021/09/03 02:57:38;;;;;;;27.23;17.73;;;13.10;99.90;;;;;;5104594;28;20396;-83
2021/09/03 03:00:08;;;;;;;20.83;16.05;;;13.10;99.90;;;;;;5100682;28;20201;-82
2021/09/03 03:02:35;;;;;;;28.25;19.35;;;13.00;99.90;;;;;;5116743;28;20250;-85
2021/09/03 03:05:03;;;;;;;18.35;16.33;;;13.00;99.90;;;;;;5120228;28;20210;-86
2021/09/03 03:07:31;;;;;;;25.88;19.10;;;13.00;99.90;;;;;;5102544;28;20231;-85
2021/09/03 03:09:59;;;;;;;26.83;18.70;;;13.00;99.90;;;;;;5094581;28;20209;-86
2021/09/03 03:12:26;;;;;;;35.20;19.83;;;12.90;99.90;;;;;;5096555;28;20205;-86
2021/09/03 03:14:53;;;;;;;23.77;18.75;;;13.00;99.90;;;;;;5114474;28;20214;-86
2021/09/03 03:17:20;;;;;;;27.85;20.13;;;12.90;99.90;;;;;;5121705;28;20209;-88
2021/09/03 03:19:47;;;;;;;27.88;18.33;;;13.00;99.90;;;;;;5118607;28;20245;-86
2021/09/03 03:22:15;;;;;;;29.08;17.02;;;12.90;99.90;;;;;;5125045;28;20201;-86
2021/09/03 03:24:42;;;;;;;28.33;19.13;;;13.00;99.90;;;;;;5116148;28;20201;-85
2021/09/03 03:27:10;;;;;;;26.38;20.13;;;12.90;99.90;;;;;;5119302;28;20225;-85
2021/09/03 03:29:37;;;;;;;25.90;18.10;;;12.90;99.90;;;;;;5112320;27;20489;-85
2021/09/03 03:32:05;;;;;;;27.85;19.70;;;12.90;99.90;;;;;;5109414;28;20204;-85
2021/09/03 03:34:32;;;;;;;30.15;18.58;;;12.90;99.90;;;;;;5105093;28;20451;-84
2021/09/03 03:37:00;;;;;;;33.70;19.92;;;12.90;99.90;;;;;;5099236;28;20213;-85
2021/09/03 03:39:27;;;;;;;27.70;17.50;;;12.90;99.90;;;;;;5122833;28;20205;-86
2021/09/03 03:41:54;;;;;;;26.60;21.92;;;12.90;99.90;;;;;;5123017;28;20245;-86
2021/09/03 03:44:22;;;;;;;28.88;20.83;;;12.90;99.90;;;;;;5099163;28;20229;-86
2021/09/03 03:46:49;;;;;;;26.50;18.13;;;12.90;99.90;;;;;;5123053;28;20274;-84
2021/09/03 03:49:16;;;;;;;31.48;20.88;;;12.90;99.90;;;;;;5123370;28;20192;-84
2021/09/03 03:51:47;;;;;;;27.23;20.40;;;12.80;99.90;;;;;;5123647;28;20200;-84
2021/09/03 03:54:14;;;;;;;27.13;19.63;;;12.80;99.90;;;;;;5123214;28;20258;-83
2021/09/03 03:56:41;;;;;;;25.48;21.08;;;12.80;99.90;;;;;;5097283;28;20555;-85
2021/09/03 03:59:08;;;;;;;28.63;22.15;;;12.80;99.90;;;;;;5094989;28;20241;-89
2021/09/03 04:01:35;;;;;;;33.67;22.27;;;12.80;99.90;;;;;;5119235;28;20212;-85
2021/09/03 04:04:02;;;;;;;24.40;20.13;;;12.80;99.90;;;;;;5097077;28;20490;-86
2021/09/03 04:06:29;;;;;;;42.75;25.20;;;12.80;99.90;;;;;;5117432;28;20233;-86
2021/09/03 04:08:57;;;;;;;33.70;25.17;;;12.80;99.90;;;;;;5115794;28;20498;-84
2021/09/03 04:11:25;;;;;;;34.65;23.52;;;12.80;99.90;;;;;;5107289;28;20207;-85
2021/09/03 04:13:52;;;;;;;34.95;25.38;;;12.70;99.90;;;;;;5113127;28;20231;-84
2021/09/03 04:16:19;;;;;;;42.25;24.58;;;12.80;99.90;;;;;;5112578;28;20484;-84
2021/09/03 04:18:46;;;;;;;42.75;24.27;;;12.80;99.90;;;;;;5096270;28;20205;-84
2021/09/03 04:21:13;;;;;;;36.38;25.20;;;12.80;99.90;;;;;;5114927;28;20216;-85
2021/09/03 04:23:40;;;;;;;46.53;27.25;;;12.80;99.90;;;;;;5118119;28;20243;-86
2021/09/03 04:26:07;;;;;;;39.03;24.63;;;12.90;99.90;;;;;;5092484;28;20200;-85
2021/09/03 04:28:34;;;;;;;45.53;27.08;;;12.90;99.90;;;;;;5110965;28;20223;-84
2021/09/03 04:31:01;;;;;;;45.72;28.10;;;13.00;99.90;;;;;;5119292;28;20218;-84
2021/09/03 04:33:28;;;;;;;41.50;27.23;;;12.90;99.90;;;;;;5121471;28;20432;-85
2021/09/03 04:35:55;;;;;;;40.13;27.50;;;12.90;99.90;;;;;;5122305;28;20201;-83
2021/09/03 04:38:23;;;;;;;47.03;28.25;;;13.00;99.90;;;;;;5094404;28;20205;-84
2021/09/03 04:40:50;;;;;;;45.08;27.05;;;13.10;99.90;;;;;;5111910;28;20205;-84
2021/09/03 04:43:17;;;;;;;41.15;27.95;;;13.20;99.90;;;;;;5107622;28;20300;-83
2021/09/03 04:45:44;;;;;;;49.88;29.60;;;13.30;99.90;;;;;;5115440;28;20209;-83
2021/09/03 04:48:11;;;;;;;39.83;27.13;;;13.30;99.90;;;;;;5121339;28;20248;-83
2021/09/03 04:50:38;;;;;;;42.08;28.42;;;13.20;99.90;;;;;;5108725;28;20200;-83
2021/09/03 04:53:06;;;;;;;65.15;30.02;;;13.40;99.90;;;;;;5115332;28;20196;-85
2021/09/03 04:55:33;;;;;;;42.80;27.73;;;13.40;99.90;;;;;;5107120;28;20198;-83
2021/09/03 04:58:01;;;;;;;45.45;31.60;;;13.50;99.90;;;;;;5104870;28;20266;-84
2021/09/03 05:00:28;;;;;;;47.67;30.25;;;13.70;99.90;;;;;;5109370;28;20201;-83
2021/09/03 05:02:55;;;;;;;45.63;31.85;;;13.90;99.90;;;;;;5116413;28;20198;-83
2021/09/03 05:05:23;;;;;;;54.60;34.47;;;13.90;99.90;;;;;;5111220;28;20232;-83
2021/09/03 05:07:51;;;;;;;48.85;30.85;;;14.00;99.90;;;;;;5114150;28;20405;-83
2021/09/03 05:10:18;;;;;;;47.42;31.33;;;13.90;99.90;;;;;;5111724;28;20231;-82
2021/09/03 05:12:45;;;;;;;46.95;33.08;;;14.00;99.90;;;;;;5113721;28;20202;-82
2021/09/03 05:15:15;;;;;;;45.90;33.45;;;14.10;99.90;;;;;;5113465;28;20202;-81
2021/09/03 05:17:47;;;;;;;47.08;30.40;;;14.20;99.90;;;;;;5117691;28;20387;-82
2021/09/03 05:20:15;;;;;;;49.08;33.38;;;14.30;99.90;;;;;;5090613;28;20197;-82
2021/09/03 05:22:42;;;;;;;45.35;30.02;;;14.30;99.90;;;;;;5112888;28;20201;-83
2021/09/03 05:25:11;;;;;;;42.75;29.88;;;14.30;99.90;;;;;;5108143;28;20491;-83
2021/09/03 05:27:39;;;;;;;44.50;31.95;;;14.40;99.90;;;;;;5102514;28;20222;-82
2021/09/03 05:30:07;;;;;;;41.88;30.77;;;14.50;99.90;;;;;;5098800;28;20202;-83
2021/09/03 05:32:36;;;;;;;34.50;26.45;;;14.60;99.90;;;;;;5120542;28;20243;-84
2021/09/03 05:35:05;;;;;;;37.42;26.90;;;14.70;99.90;;;;;;5117645;28;20244;-83
2021/09/03 05:37:35;;;;;;;28.77;23.65;;;14.90;99.90;;;;;;5094094;28;20394;-83
2021/09/03 05:40:04;;;;;;;27.90;22.48;;;15.00;99.90;;;;;;5093336;28;20361;-83
2021/09/03 05:42:31;;;;;;;29.15;19.83;;;15.00;99.90;;;;;;5120938;28;20220;-83
2021/09/03 05:44:59;;;;;;;23.38;19.85;;;15.20;99.90;;;;;;5106232;28;20524;-84
2021/09/03 05:47:27;;;;;;;19.98;17.42;;;15.20;99.90;;;;;;5103053;28;20223;-84
2021/09/03 05:49:55;;;;;;;23.17;17.63;;;15.40;99.90;;;;;;5099585;28;20198;-84
2021/09/03 05:52:23;;;;;;;19.65;16.85;;;15.40;99.90;;;;;;5104486;28;20207;-84
2021/09/03 05:54:50;;;;;;;18.17;16.27;;;15.40;99.90;;;;;;5102302;28;20236;-83
2021/09/03 05:57:17;;;;;;;16.73;14.87;;;15.50;99.90;;;;;;5117032;28;20197;-87
2021/09/03 05:59:44;;;;;;;16.60;13.57;;;15.70;99.90;;;;;;5122470;28;20495;-84
2021/09/03 06:02:11;;;;;;;13.43;12.23;;;16.00;99.90;;;;;;5117157;28;20400;-85
2021/09/03 06:04:39;;;;;;;16.30;13.07;;;16.20;99.90;;;;;;5115714;28;20499;-86
2021/09/03 06:07:07;;;;;;;14.30;10.70;;;16.40;99.90;;;;;;5119278;28;20456;-86
2021/09/03 06:09:34;;;;;;;14.13;12.23;;;16.80;99.90;;;;;;5121951;28;20773;-84
2021/09/03 06:12:01;;;;;;;11.73;10.63;;;17.00;99.90;;;;;;5103218;28;20483;-86
2021/09/03 06:14:28;;;;;;;14.53;10.80;;;17.20;99.90;;;;;;5115770;28;20421;-86
2021/09/03 06:16:55;;;;;;;16.03;10.57;;;17.60;99.90;;;;;;5103565;28;20470;-85
2021/09/03 06:19:22;;;;;;;11.33;10.10;;;18.00;99.90;;;;;;5118560;28;20437;-86
2021/09/03 06:21:49;;;;;;;9.50;8.60;;;18.40;99.90;;;;;;5117080;28;20737;-86
2021/09/03 06:24:32;;;;;;;10.30;9.17;;;19.10;99.90;;;;;;5118395;28;20450;-84
2021/09/03 06:27:05;;;;;;;11.13;9.77;;;19.60;99.90;;;;;;5092129;28;20820;-86
2021/09/03 06:29:37;;;;;;;11.40;8.77;;;20.30;99.90;;;;;;5089230;28;20439;-87
2021/09/03 06:32:11;;;;;;;10.03;7.80;;;20.90;99.90;;;;;;5121804;28;20717;-85
2021/09/03 06:34:41;;;;;;;9.60;8.67;;;22.00;99.90;;;;;;5115239;28;20665;-86
2021/09/03 06:37:08;;;;;;;10.53;8.90;;;22.70;99.90;;;;;;5105686;28;20466;-86
2021/09/03 06:39:37;;;;;;;9.47;8.07;;;24.00;99.90;;;;;;5124175;28;20437;-88
2021/09/03 06:42:05;;;;;;;9.60;8.57;;;24.50;99.90;;;;;;5094297;28;20430;-86
2021/09/03 06:44:33;;;;;;;9.17;8.30;;;25.20;99.90;;;;;;5114060;28;20439;-85
2021/09/03 06:47:00;;;;;;;8.90;8.10;;;26.30;99.90;;;;;;5094749;28;20826;-87
2021/09/03 06:49:28;;;;;;;9.67;8.67;;;27.10;99.90;;;;;;5110846;28;20457;-85
2021/09/03 06:51:56;;;;;;;10.50;9.70;;;27.80;99.90;;;;;;5100910;28;20438;-88
2021/09/03 06:54:23;;;;;;;10.93;10.03;;;28.50;99.90;;;;;;5097255;28;20436;-86
2021/09/03 06:56:50;;;;;;;10.03;9.33;;;29.60;99.90;;;;;;5094544;28;20755;-87
2021/09/03 06:59:17;;;;;;;12.80;11.70;;;31.00;96.80;;;;;;5101299;28;20438;-87
2021/09/03 07:01:45;;;;;;;13.70;12.47;;;32.10;93.90;;;;;;5119602;28;20605;-85
2021/09/03 07:04:12;;;;;;;12.47;11.57;;;32.30;92.20;;;;;;5091083;28;20446;-84
2021/09/03 07:06:39;;;;;;;13.13;12.23;;;31.80;92.00;;;;;;5117465;28;20446;-84
2021/09/03 07:09:06;;;;;;;13.23;12.07;;;30.90;92.70;;;;;;5118851;28;20434;-85
2021/09/03 07:11:34;;;;;;;14.73;13.30;;;31.00;93.00;;;;;;5118235;28;20450;-84
2021/09/03 07:14:03;;;;;;;14.70;13.30;;;32.20;91.40;;;;;;5119316;27;20567;-83
2021/09/03 07:16:31;;;;;;;13.97;12.97;;;32.20;90.50;;;;;;5117767;28;20428;-83
2021/09/03 07:19:05;;;;;;;14.13;12.77;;;31.40;91.20;;;;;;5101737;28;20729;-84
2021/09/03 07:21:32;;;;;;;13.27;12.20;;;31.20;91.30;;;;;;5105240;28;20776;-85
2021/09/03 07:24:00;;;;;;;13.10;12.00;;;31.30;91.00;;;;;;5116945;27;20499;-87
2021/09/03 07:26:28;;;;;;;13.50;12.53;;;31.30;91.00;;;;;;5108708;28;20441;-85
2021/09/03 07:28:56;;;;;;;12.93;11.87;;;31.90;90.30;;;;;;5123153;28;20539;-87
2021/09/03 07:31:24;;;;;;;12.97;12.20;;;32.70;88.20;;;;;;5111467;27;20435;-84
2021/09/03 07:33:52;;;;;;;12.70;11.80;;;32.30;87.70;;;;;;5119120;28;20514;-86
2021/09/03 07:36:19;;;;;;;13.23;12.23;;;32.30;86.90;;;;;;5103536;28;20444;-85
2021/09/03 07:38:46;;;;;;;13.43;12.43;;;33.30;84.90;;;;;;5118640;28;20442;-85
2021/09/03 07:41:14;;;;;;;14.90;13.63;;;33.50;84.00;;;;;;5120931;28;20665;-86
2021/09/03 07:43:41;;;;;;;13.47;12.60;;;32.90;85.10;;;;;;5105091;28;20650;-86
2021/09/03 07:46:09;;;;;;;14.30;13.13;;;33.50;83.40;;;;;;5122098;28;20441;-86
2021/09/03 07:48:36;;;;;;;13.60;12.77;;;34.30;81.50;;;;;;5118935;28;20505;-84
2021/09/03 07:51:03;;;;;;;13.13;12.33;;;34.10;80.00;;;;;;5104270;28;20430;-85
2021/09/03 07:53:31;;;;;;;13.03;12.03;;;34.00;81.40;;;;;;5120185;28;20488;-86
2021/09/03 07:55:59;;;;;;;12.70;11.90;;;33.80;81.10;;;;;;5103997;28;20431;-84
2021/09/03 07:58:26;;;;;;;12.73;12.03;;;33.70;79.60;;;;;;5121552;27;20458;-85
2021/09/03 08:00:53;;;;;;;13.30;12.33;;;34.60;78.00;;;;;;5121251;28;20520;-85
2021/09/03 08:03:21;;;;;;;13.30;12.60;;;34.50;78.80;;;;;;5097176;28;20464;-85
2021/09/03 08:05:48;;;;;;;12.63;11.83;;;34.70;77.00;;;;;;5118515;28;20425;-84
2021/09/03 08:08:15;;;;;;;12.30;11.70;;;34.10;76.80;;;;;;5098435;28;20520;-84
2021/09/03 08:10:42;;;;;;;13.87;12.90;;;33.30;78.30;;;;;;5109940;28;20481;-85
2021/09/03 08:13:10;;;;;;;12.63;11.83;;;33.90;79.40;;;;;;5097001;28;20486;-85
2021/09/03 08:15:37;;;;;;;13.37;12.53;;;34.70;74.60;;;;;;5114993;28;20434;-85
2021/09/03 08:18:05;;;;;;;14.00;13.20;;;34.10;76.40;;;;;;5100893;27;20480;-85
2021/09/03 08:20:33;;;;;;;14.20;13.40;;;32.90;77.60;;;;;;5112160;28;20711;-84
2021/09/03 08:23:01;;;;;;;15.53;14.53;;;32.80;78.50;;;;;;5095416;28;20443;-85
2021/09/03 08:25:29;;;;;;;12.87;12.10;;;33.30;76.30;;;;;;5090655;28;20446;-86
2021/09/03 08:27:56;;;;;;;13.60;12.80;;;33.80;75.60;;;;;;5094460;28;20659;-86
2021/09/03 08:30:24;;;;;;;15.33;13.93;;;34.40;74.10;;;;;;5125903;27;20498;-83
2021/09/03 08:32:51;;;;;;;14.03;13.13;;;35.50;71.70;;;;;;5128708;27;20430;-85
2021/09/03 08:35:18;;;;;;;14.70;13.80;;;34.10;73.40;;;;;;5102874;28;20449;-83
2021/09/03 08:37:50;;;;;;;13.03;12.33;;;33.70;74.50;;;;;;5121810;28;20481;-84
2021/09/03 08:40:17;;;;;;;13.50;12.70;;;33.50;74.70;;;;;;5098637;28;20435;-84
2021/09/03 08:42:44;;;;;;;14.90;13.60;;;33.00;75.20;;;;;;5116261;28;20446;-85
2021/09/03 08:45:14;;;;;;;14.50;13.17;;;33.50;75.60;;;;;;5096341;28;20479;-85
2021/09/03 08:47:43;;;;;;;13.83;12.93;;;34.00;73.70;;;;;;5103256;28;20478;-85
2021/09/03 08:50:13;;;;;;;12.10;11.50;;;33.00;75.20;;;;;;5121884;28;20762;-85
2021/09/03 08:52:45;;;;;;;12.40;11.70;;;32.20;78.30;;;;;;5121526;28;20602;-84
2021/09/03 08:55:13;;;;;;;13.27;12.30;;;32.90;76.40;;;;;;5102008;28;20482;-83
2021/09/03 08:57:42;;;;;;;14.20;13.30;;;33.80;73.80;;;;;;5104679;28;20652;-84
2021/09/03 09:00:26;;;;;;;13.33;12.43;;;34.10;71.50;;;;;;5116273;28;20445;-85
2021/09/03 09:03:05;;;;;;;12.70;11.87;;;32.30;75.60;;;;;;5116876;28;20456;-85
2021/09/03 09:05:55;;;;;;;11.83;11.13;;;31.80;78.40;;;;;;5118612;28;20455;-83
2021/09/03 09:08:24;;;;;;;11.87;11.17;;;31.50;78.60;;;;;;5114220;28;20495;-85
2021/09/03 09:10:55;;;;;;;13.97;12.37;;;31.40;78.50;;;;;;5114488;27;20565;-83
2021/09/03 09:13:27;;;;;;;12.27;11.37;;;31.50;78.10;;;;;;5101917;28;20744;-85
2021/09/03 09:16:18;;;;;;;12.80;11.90;;;31.10;80.60;;;;;;5112189;28;20491;-85
2021/09/03 09:18:51;;;;;;;12.03;11.23;;;30.10;82.30;;;;;;5090378;28;20485;-84
2021/09/03 09:21:23;;;;;;;11.83;11.03;;;28.20;86.70;;;;;;5110407;28;20478;-85
2021/09/03 09:23:50;;;;;;;12.63;11.73;;;27.30;90.60;;;;;;5121458;28;20604;-83
2021/09/03 09:26:19;;;;;;;11.70;10.90;;;26.60;91.80;;;;;;5101116;28;20447;-86
2021/09/03 09:28:47;;;;;;;11.30;10.50;;;25.80;91.80;;;;;;5110306;28;20481;-83
2021/09/03 09:31:35;;;;;;;11.57;10.53;;;25.30;92.90;;;;;;5121421;28;20725;-82
2021/09/03 09:34:24;;;;;;;10.53;9.77;;;24.80;94.20;;;;;;5120777;28;20658;-82
2021/09/03 09:36:53;;;;;;;10.33;9.53;;;24.50;95.20;;;;;;5117257;28;20525;-83
2021/09/03 09:39:24;;;;;;;10.63;9.63;;;24.40;94.90;;;;;;5110413;28;20445;-84
2021/09/03 09:42:04;;;;;;;10.83;10.03;;;24.50;95.60;;;;;;5114983;28;20512;-84
2021/09/03 09:44:33;;;;;;;10.07;9.13;;;24.40;95.50;;;;;;5083670;28;20447;-82
2021/09/03 09:47:12;;;;;;;10.33;9.53;;;24.30;96.20;;;;;;5118202;28;20434;-84
2021/09/03 09:49:40;;;;;;;9.63;8.70;;;24.00;96.00;;;;;;5104719;28;20440;-81
2021/09/03 09:52:08;;;;;;;9.43;8.83;;;23.50;97.10;;;;;;5121265;28;20564;-82
2021/09/03 09:54:35;;;;;;;10.10;9.10;;;23.20;97.80;;;;;;5129796;28;20765;-83
2021/09/03 09:57:04;;;;;;;9.13;8.47;;;23.20;98.50;;;;;;5112025;28;20447;-84
2021/09/03 09:59:34;;;;;;;8.60;7.90;;;23.20;97.80;;;;;;5122227;28;20787;-84
2021/09/03 10:02:04;;;;;;;8.20;7.47;;;23.30;98.00;;;;;;5100538;28;20412;-83
2021/09/03 10:04:32;;;;;;;8.27;7.67;;;23.50;97.60;;;;;;5113045;28;20570;-83
2021/09/03 10:07:01;;;;;;;13.00;9.60;;;23.30;97.50;;;;;;5112946;28;20746;-83
2021/09/03 10:09:31;;;;;;;9.40;8.70;;;23.20;98.60;;;;;;5118715;28;20658;-83
2021/09/03 10:12:00;;;;;;;8.03;7.50;;;23.20;98.10;;;;;;5103610;28;20442;-83
2021/09/03 10:14:32;;;;;;;7.77;7.23;;;23.40;98.50;;;;;;5117537;28;20474;-82
2021/09/03 10:17:00;;;;;;;8.40;7.70;;;23.50;98.50;;;;;;5088221;28;20431;-83
2021/09/03 10:19:30;;;;;;;9.17;8.47;;;23.50;98.40;;;;;;5117930;28;20695;-83
2021/09/03 10:22:11;;;;;;;7.77;7.17;;;23.60;98.90;;;;;;5114514;28;20509;-84
2021/09/03 10:24:42;;;;;;;9.00;8.30;;;23.80;98.50;;;;;;5117552;28;20669;-84
2021/09/03 10:27:11;;;;;;;13.03;8.20;;;23.90;99.10;;;;;;5118631;28;20446;-84
2021/09/03 10:29:43;;;;;;;9.13;8.33;;;23.80;98.30;;;;;;5118417;28;20686;-83
2021/09/03 10:32:20;;;;;;;11.10;8.27;;;23.50;99.10;;;;;;5129940;28;20401;-84
2021/09/03 10:34:50;;;;;;;9.63;8.47;;;23.10;99.40;;;;;;5115929;28;20396;-83
2021/09/03 10:37:22;;;;;;;9.00;8.30;;;23.00;99.90;;;;;;5124629;28;20412;-84
2021/09/03 10:40:02;;;;;;;7.90;7.20;;;22.90;99.90;;;;;;5105340;28;20550;-83
2021/09/03 10:43:00;;;;;;;8.10;7.50;;;22.90;99.90;;;;;;5112832;28;20421;-82
2021/09/03 10:45:29;;;;;;;8.43;7.63;;;22.90;99.90;;;;;;5115275;28;20505;-84
2021/09/03 10:47:55;;;;;;;9.00;7.80;;;23.00;99.90;;;;;;5121046;28;20751;-84
2021/09/03 10:50:36;;;;;;;8.27;7.57;;;23.10;99.90;;;;;;5095686;28;20427;-84
2021/09/03 10:53:05;;;;;;;8.40;7.77;;;23.10;99.90;;;;;;5116949;28;20486;-84
2021/09/03 10:55:52;;;;;;;8.30;7.47;;;22.80;99.90;;;;;;5117721;28;20551;-85
2021/09/03 10:58:37;;;;;;;8.80;7.53;;;22.80;99.90;;;;;;5110457;28;20437;-82
2021/09/03 11:01:10;;;;;;;8.20;7.57;;;23.00;99.90;;;;;;5109720;28;20439;-85
2021/09/03 11:03:44;;;;;;;7.00;6.40;;;23.20;99.90;;;;;;5117090;28;20437;-84
2021/09/03 11:06:12;;;;;;;7.87;7.27;;;23.30;99.90;;;;;;5124081;28;20429;-84
2021/09/03 11:08:45;;;;;;;9.70;8.30;;;23.30;99.90;;;;;;5123159;28;20815;-85
2021/09/03 11:11:42;;;;;;;7.30;6.70;;;23.40;99.40;;;;;;5097945;28;20728;-82
2021/09/03 11:14:11;;;;;;;8.23;7.53;;;23.20;99.30;;;;;;5081980;28;20414;-82
2021/09/03 11:16:38;;;;;;;7.70;7.10;;;23.20;99.70;;;;;;5107401;28;20426;-84
2021/09/03 11:19:33;;;;;;;8.10;7.50;;;23.10;99.90;;;;;;5123694;28;20631;-82
2021/09/03 11:22:05;;;;;;;9.67;8.40;;;23.20;99.90;;;;;;5095169;28;20623;-83
2021/09/03 11:24:35;;;;;;;7.50;6.90;;;23.20;99.90;;;;;;5103254;28;21089;-83
2021/09/03 11:27:06;;;;;;;8.30;7.60;;;23.10;99.90;;;;;;5097962;28;20462;-84
2021/09/03 11:29:43;;;;;;;7.70;7.00;;;22.90;99.90;;;;;;5118094;28;20432;-83
2021/09/03 11:32:21;;;;;;;8.30;7.70;;;22.70;99.90;;;;;;5100160;28;20458;-82
2021/09/03 11:34:56;;;;;;;8.70;7.97;;;22.70;99.90;;;;;;5120606;28;20746;-83
2021/09/03 11:37:36;;;;;;;8.30;7.70;;;22.80;99.90;;;;;;5096722;28;20456;-84
2021/09/03 11:40:15;;;;;;;8.60;8.00;;;23.10;99.90;;;;;;5096907;28;20442;-83
2021/09/03 11:42:51;;;;;;;8.00;7.33;;;23.20;99.90;;;;;;5094314;28;20427;-83
2021/09/03 11:45:39;;;;;;;8.30;7.60;;;23.50;99.90;;;;;;5095299;28;20468;-83
2021/09/03 11:48:09;;;;;;;8.53;7.80;;;23.90;99.10;;;;;;5105216;28;20454;-83
2021/09/03 11:50:43;;;;;;;9.20;8.37;;;23.90;98.50;;;;;;5111455;28;20602;-83
2021/09/03 11:53:15;;;;;;;8.60;8.00;;;23.90;97.80;;;;;;5095113;28;20662;-82
2021/09/03 11:55:48;;;;;;;8.00;7.47;;;23.90;98.30;;;;;;5099389;28;20445;-85
2021/09/03 11:58:18;;;;;;;8.77;7.97;;;23.90;98.20;;;;;;5111787;28;20503;-82
2021/09/03 12:00:53;;;;;;;10.17;8.83;;;24.00;98.50;;;;;;5119652;28;20430;-83
2021/09/03 12:03:46;;;;;;;9.60;8.80;;;24.20;98.10;;;;;;5115602;28;20408;-85
2021/09/03 12:06:16;;;;;;;8.07;7.33;;;24.40;98.00;;;;;;5101101;28;20719;-82
2021/09/03 12:08:43;;;;;;;8.60;8.03;;;24.50;97.80;;;;;;5121356;28;20501;-83
2021/09/03 12:11:16;;;;;;;8.23;7.63;;;24.40;97.40;;;;;;5115692;28;20408;-85
2021/09/03 12:13:56;;;;;;;10.37;9.40;;;24.50;97.70;;;;;;5118180;28;20646;-82
2021/09/03 12:16:29;;;;;;;8.87;8.20;;;24.60;97.50;;;;;;5120520;28;20422;-86
2021/09/03 12:19:02;;;;;;;9.80;9.10;;;24.40;97.90;;;;;;5088400;28;20441;-85
2021/09/03 12:21:40;;;;;;;10.93;8.43;;;24.10;98.20;;;;;;5121990;28;20451;-82
2021/09/03 12:24:12;;;;;;;9.20;8.53;;;23.90;97.70;;;;;;5116000;28;20453;-83
2021/09/03 12:26:51;;;;;;;8.23;7.63;;;23.80;97.50;;;;;;5090248;28;20418;-83
2021/09/03 12:29:27;;;;;;;9.30;8.60;;;23.80;98.30;;;;;;5099599;28;20444;-82
2021/09/03 12:32:00;;;;;;;8.20;7.50;;;23.90;97.70;;;;;;5122453;28;20425;-83
2021/09/03 12:34:29;;;;;;;8.97;8.03;;;24.00;97.20;;;;;;5103309;28;20468;-83
2021/09/03 12:36:59;;;;;;;9.00;8.30;;;24.00;97.60;;;;;;5105101;28;20435;-83
2021/09/03 12:39:27;;;;;;;8.77;8.07;;;23.90;97.60;;;;;;5095664;28;20536;-82
2021/09/03 12:41:55;;;;;;;7.73;7.23;;;23.90;97.80;;;;;;5089015;28;20435;-82
2021/09/03 12:44:22;;;;;;;8.30;7.70;;;24.00;97.90;;;;;;5122083;28;20487;-84